Clifton Hill, Missouri
Current Conditions -  °F | °C
As of 8:15 AM on Thursday 29 Jan 2015 (Local Time) from KVER Reporting Station
Overcast Overcast  
Wind Chill: 31°   Ceiling: 2100
Heat Index: 39°   Visibility: 10mi
Dew Point: 32°   Wind: 15mph
Humidity: 75%   Direction: 300°WNW
Pressure: 30.16"   Gusts: 24mph
Location:  39.44°N, 92.67°W
Report Text: KVER 291415Z AUTO 30013G21KT 10SM SCT016 OVC021 04/00 A3016 RMK AO2 T00400000
Loading
Personal Weather Stations






























Interactive Weather Map New forecast layout! Learn more

10-Day Weather Forecast

Advertisements
Track Severe Weather on mobile